createdAt,value
2017-10-11T00:00:25.479Z,0
2017-10-11T00:01:05.996Z,0
2017-10-11T00:01:46.434Z,0
2017-10-11T00:02:26.888Z,0
2017-10-11T00:03:07.373Z,0
2017-10-11T00:03:47.815Z,0
2017-10-11T00:04:28.277Z,0
2017-10-11T00:05:08.819Z,0
2017-10-11T00:05:49.283Z,0
2017-10-11T00:06:29.879Z,0
2017-10-11T00:07:10.397Z,0
2017-10-11T00:07:50.833Z,0
2017-10-11T00:08:31.286Z,0
2017-10-11T00:09:11.762Z,0
2017-10-11T00:09:53.052Z,0
2017-10-11T00:10:34.078Z,0
2017-10-11T00:11:14.526Z,0
2017-10-11T00:11:54.971Z,0
2017-10-11T00:12:35.449Z,0
2017-10-11T00:13:15.936Z,0
2017-10-11T00:13:56.434Z,0
2017-10-11T00:14:36.849Z,0
2017-10-11T00:15:17.396Z,0
2017-10-11T00:15:57.829Z,0
2017-10-11T00:16:38.904Z,0
2017-10-11T00:17:19.355Z,0
2017-10-11T00:17:59.888Z,0
2017-10-11T00:18:40.368Z,0
2017-10-11T00:19:20.850Z,0
2017-10-11T00:20:01.266Z,0
2017-10-11T00:20:41.715Z,0
2017-10-11T00:21:22.155Z,0
2017-10-11T00:22:02.608Z,0
2017-10-11T00:22:43.067Z,0
2017-10-11T00:23:24.142Z,0
2017-10-11T00:24:04.635Z,0
2017-10-11T00:24:45.231Z,0
2017-10-11T00:25:25.718Z,0
2017-10-11T00:26:06.252Z,0
2017-10-11T00:26:46.687Z,0
2017-10-11T00:27:27.139Z,0
2017-10-11T00:28:07.609Z,0
2017-10-11T00:28:48.136Z,0
2017-10-11T00:29:28.646Z,0
2017-10-11T00:30:09.058Z,0
2017-10-11T00:30:49.561Z,0
2017-10-11T00:31:30.076Z,0
2017-10-11T00:32:10.592Z,0
2017-10-11T00:32:51.035Z,0
2017-10-11T00:33:31.515Z,0
2017-10-11T00:34:12.064Z,0
2017-10-11T00:34:52.483Z,0
2017-10-11T00:35:32.931Z,0
2017-10-11T00:36:13.479Z,0
2017-10-11T00:36:53.994Z,0
2017-10-11T00:37:34.406Z,0
2017-10-11T00:38:14.912Z,0
2017-10-11T00:38:55.314Z,0
2017-10-11T00:39:35.840Z,0
2017-10-11T00:40:16.306Z,0
2017-10-11T00:40:56.734Z,0
2017-10-11T00:41:37.209Z,0
2017-10-11T00:42:17.624Z,0
2017-10-11T00:42:58.213Z,0
2017-10-11T00:43:38.653Z,0
2017-10-11T00:44:19.158Z,0
2017-10-11T00:44:59.733Z,0
2017-10-11T00:45:40.148Z,0
2017-10-11T00:46:20.561Z,0
2017-10-11T00:47:01.053Z,0
2017-10-11T00:47:41.546Z,0
2017-10-11T00:48:22.754Z,0
2017-10-11T00:49:03.166Z,0
2017-10-11T00:49:43.862Z,0
2017-10-11T00:50:24.368Z,0
2017-10-11T00:51:04.816Z,0
2017-10-11T00:51:45.293Z,0
2017-10-11T00:52:25.757Z,0
2017-10-11T00:53:06.213Z,0
2017-10-11T00:53:46.777Z,0
2017-10-11T00:54:27.270Z,0
2017-10-11T00:55:07.710Z,0
2017-10-11T00:55:48.161Z,0
2017-10-11T00:56:28.672Z,0
2017-10-11T00:57:09.169Z,0
2017-10-11T00:57:49.646Z,0
2017-10-11T00:58:30.116Z,0
2017-10-11T00:59:10.562Z,0
2017-10-11T00:59:51.067Z,0
2017-10-11T01:00:31.524Z,0
2017-10-11T01:01:11.981Z,0
2017-10-11T01:01:52.506Z,0
2017-10-11T01:02:32.923Z,0
2017-10-11T01:03:13.585Z,0
2017-10-11T01:03:54.174Z,0
2017-10-11T01:04:34.525Z,0
2017-10-11T01:05:15.005Z,0
2017-10-11T01:05:55.489Z,0
2017-10-11T01:06:35.899Z,0
2017-10-11T01:07:16.400Z,0
2017-10-11T01:07:56.825Z,0
2017-10-11T01:08:37.520Z,0
2017-10-11T01:09:18.006Z,0
2017-10-11T01:09:58.487Z,0
2017-10-11T01:10:38.925Z,0
2017-10-11T01:11:19.410Z,0
2017-10-11T01:11:59.862Z,0
2017-10-11T01:12:40.347Z,0
2017-10-11T01:13:20.826Z,0
2017-10-11T01:14:01.306Z,0
2017-10-11T01:14:41.827Z,0
2017-10-11T01:15:22.219Z,0
2017-10-11T01:16:02.720Z,0
2017-10-11T01:16:43.069Z,0
2017-10-11T01:17:23.628Z,0
2017-10-11T01:18:04.099Z,0
2017-10-11T01:18:44.650Z,0
2017-10-11T01:19:25.116Z,0
2017-10-11T01:20:05.561Z,0
2017-10-11T01:20:46.024Z,0
2017-10-11T01:21:26.440Z,0
2017-10-11T01:22:06.905Z,0
2017-10-11T01:22:47.394Z,0
2017-10-11T01:23:27.819Z,0
2017-10-11T01:24:08.409Z,0
2017-10-11T01:24:48.811Z,0
2017-10-11T01:25:29.281Z,0
2017-10-11T01:26:09.716Z,0
2017-10-11T01:26:50.130Z,0
2017-10-11T01:27:30.585Z,0
2017-10-11T01:28:11.052Z,0
2017-10-11T01:28:51.535Z,0
2017-10-11T01:29:32.051Z,0
2017-10-11T01:30:12.529Z,0
2017-10-11T01:30:52.937Z,0
2017-10-11T01:31:33.444Z,0
2017-10-11T01:32:13.927Z,0
2017-10-11T01:32:54.479Z,0
2017-10-11T01:33:35.018Z,0
2017-10-11T01:34:15.417Z,0
2017-10-11T01:34:55.829Z,0
2017-10-11T01:35:36.270Z,0
2017-10-11T01:36:16.774Z,0
2017-10-11T01:36:57.963Z,0
2017-10-11T01:37:38.412Z,0
2017-10-11T01:38:19.641Z,0
2017-10-11T01:39:01.068Z,0
2017-10-11T01:39:41.513Z,0
2017-10-11T01:40:21.960Z,0
2017-10-11T01:41:02.396Z,0
2017-10-11T01:41:42.813Z,0
2017-10-11T01:42:23.312Z,0
2017-10-11T01:43:03.825Z,0
2017-10-11T01:43:44.319Z,0
2017-10-11T01:44:24.762Z,0
2017-10-11T01:45:05.228Z,0
2017-10-11T01:45:45.684Z,0
2017-10-11T01:46:26.107Z,0
2017-10-11T01:47:06.602Z,0
2017-10-11T01:47:47.124Z,0
2017-10-11T01:48:27.680Z,0
2017-10-11T01:49:08.259Z,0
2017-10-11T01:49:48.664Z,0
2017-10-11T01:50:29.130Z,0
2017-10-11T01:51:09.586Z,0
2017-10-11T01:51:50.028Z,0
2017-10-11T01:52:30.502Z,0
2017-10-11T01:53:10.937Z,0
2017-10-11T01:53:51.482Z,0
2017-10-11T01:54:31.899Z,0
2017-10-11T01:55:12.418Z,0
2017-10-11T01:55:52.889Z,0
2017-10-11T01:56:33.338Z,0
2017-10-11T01:57:13.814Z,0
2017-10-11T01:57:54.242Z,0
2017-10-11T01:58:34.765Z,0
2017-10-11T01:59:15.114Z,0
2017-10-11T01:59:55.626Z,0
2017-10-11T02:02:14.911Z,0
2017-10-11T02:02:55.343Z,0
2017-10-11T02:03:35.786Z,0
2017-10-11T02:04:16.331Z,0
2017-10-11T02:04:56.693Z,0
2017-10-11T02:05:37.244Z,0
2017-10-11T02:06:17.701Z,0
2017-10-11T02:06:58.190Z,0
2017-10-11T02:07:38.654Z,0
2017-10-11T02:08:19.109Z,0
2017-10-11T02:08:59.607Z,0
2017-10-11T02:09:40.118Z,0
2017-10-11T02:10:21.079Z,0
2017-10-11T02:11:01.563Z,0
2017-10-11T02:11:42.186Z,0
2017-10-11T02:12:22.823Z,0
2017-10-11T02:13:03.216Z,0
2017-10-11T02:13:43.662Z,0
2017-10-11T02:14:24.102Z,0
2017-10-11T02:15:04.551Z,0
2017-10-11T02:15:45.071Z,0
2017-10-11T02:16:26.122Z,0
2017-10-11T02:17:06.567Z,0
2017-10-11T02:17:47.014Z,0
2017-10-11T02:18:27.528Z,0
2017-10-11T02:19:07.874Z,0
2017-10-11T02:19:48.363Z,0
2017-10-11T02:20:28.824Z,0
2017-10-11T02:21:09.356Z,0
2017-10-11T02:21:49.713Z,0
2017-10-11T02:22:30.164Z,0
2017-10-11T02:23:10.762Z,0
2017-10-11T02:23:51.237Z,0
2017-10-11T02:24:31.649Z,0
2017-10-11T02:25:12.126Z,0
2017-10-11T02:25:52.619Z,0
2017-10-11T02:26:33.097Z,0
2017-10-11T02:27:13.550Z,0
2017-10-11T02:27:54.015Z,0
2017-10-11T02:28:34.465Z,0
2017-10-11T02:29:14.930Z,0
2017-10-11T02:29:55.401Z,0
2017-10-11T02:30:35.774Z,0
2017-10-11T02:31:16.230Z,0
2017-10-11T02:31:56.710Z,0
2017-10-11T02:32:37.249Z,0
2017-10-11T02:33:17.783Z,0
2017-10-11T02:33:58.208Z,0
2017-10-11T02:34:38.615Z,0
2017-10-11T02:35:19.072Z,0
2017-10-11T02:35:59.570Z,0
2017-10-11T02:36:39.990Z,0
2017-10-11T02:37:20.438Z,0
2017-10-11T02:38:00.909Z,0
2017-10-11T02:38:41.344Z,0
2017-10-11T02:39:21.818Z,0
2017-10-11T02:40:02.230Z,0
2017-10-11T02:40:42.688Z,0
2017-10-11T02:41:23.138Z,0
2017-10-11T02:42:03.527Z,0
2017-10-11T02:42:44.012Z,0
2017-10-11T02:43:24.438Z,0
2017-10-11T02:44:04.925Z,0
2017-10-11T02:44:45.386Z,0
2017-10-11T02:45:25.849Z,0
2017-10-11T02:46:06.334Z,0
2017-10-11T02:46:46.847Z,0
2017-10-11T02:47:27.285Z,0
2017-10-11T02:48:07.751Z,0
2017-10-11T02:48:48.213Z,0
2017-10-11T02:49:28.645Z,0
2017-10-11T02:50:09.075Z,0
2017-10-11T02:50:49.493Z,0
2017-10-11T02:51:30.770Z,0
2017-10-11T02:52:11.224Z,0
2017-10-11T02:52:51.685Z,0
2017-10-11T02:53:32.213Z,0
2017-10-11T02:54:12.618Z,0
2017-10-11T02:54:53.148Z,0
2017-10-11T02:55:33.622Z,0
2017-10-11T02:56:14.159Z,0
2017-10-11T02:56:54.638Z,0
2017-10-11T02:57:35.085Z,0
2017-10-11T02:58:15.537Z,0
2017-10-11T02:58:56.013Z,0
2017-10-11T02:59:36.463Z,0
2017-10-11T03:00:16.904Z,0
2017-10-11T03:00:57.360Z,0
2017-10-11T03:01:38.032Z,0
2017-10-11T03:02:18.370Z,0
2017-10-11T03:02:58.772Z,0
2017-10-11T03:03:39.230Z,0
2017-10-11T03:04:19.733Z,0
2017-10-11T03:05:00.247Z,0
2017-10-11T03:05:40.721Z,0
2017-10-11T03:06:21.150Z,0
2017-10-11T03:07:01.657Z,0
2017-10-11T03:07:42.206Z,0
2017-10-11T03:08:22.757Z,0
2017-10-11T03:09:03.269Z,0
2017-10-11T03:09:43.858Z,0
2017-10-11T03:12:17.676Z,0
2017-10-11T03:12:58.177Z,0
2017-10-11T03:13:38.685Z,0
2017-10-11T03:14:19.234Z,0
2017-10-11T03:14:59.709Z,0
2017-10-11T03:15:40.188Z,0
2017-10-11T03:16:20.697Z,0
2017-10-11T03:17:01.270Z,0
2017-10-11T03:17:41.619Z,0
2017-10-11T03:18:22.074Z,0
2017-10-11T03:19:02.762Z,0
2017-10-11T03:19:43.218Z,0
2017-10-11T03:20:23.837Z,0
2017-10-11T03:21:04.208Z,0
2017-10-11T03:21:44.686Z,0
2017-10-11T03:22:25.242Z,0
2017-10-11T03:23:05.662Z,0
2017-10-11T03:23:46.102Z,0
2017-10-11T03:24:26.555Z,0
2017-10-11T03:25:07.097Z,0
2017-10-11T03:25:47.491Z,0
2017-10-11T03:26:28.016Z,0
2017-10-11T03:27:08.402Z,0
2017-10-11T03:27:49.054Z,0
2017-10-11T03:28:29.407Z,0
2017-10-11T03:29:09.940Z,0
2017-10-11T03:29:51.857Z,0
2017-10-11T03:30:32.359Z,0
2017-10-11T03:31:12.763Z,0
2017-10-11T03:31:53.814Z,0
2017-10-11T03:32:34.234Z,0
2017-10-11T03:33:14.734Z,0
2017-10-11T03:33:55.168Z,0
2017-10-11T03:34:35.558Z,0
2017-10-11T03:35:16.041Z,0
2017-10-11T03:35:56.509Z,0
2017-10-11T03:36:36.958Z,0
2017-10-11T03:37:17.395Z,0
2017-10-11T03:37:57.888Z,0
2017-10-11T03:38:38.291Z,0
2017-10-11T03:39:18.740Z,0
2017-10-11T03:39:59.259Z,0
2017-10-11T03:40:39.719Z,0
2017-10-11T03:41:20.172Z,0
2017-10-11T03:42:00.617Z,0
2017-10-11T03:42:41.075Z,0
2017-10-11T03:43:21.607Z,0
2017-10-11T03:44:02.091Z,0
2017-10-11T03:44:42.544Z,0
2017-10-11T03:45:22.924Z,0
2017-10-11T03:46:03.392Z,0
2017-10-11T03:46:43.840Z,0
2017-10-11T03:47:24.457Z,0
2017-10-11T03:48:04.931Z,0
2017-10-11T03:48:45.432Z,0
2017-10-11T03:49:25.872Z,0
2017-10-11T03:50:06.489Z,0
2017-10-11T03:50:46.825Z,0
2017-10-11T03:51:27.237Z,0
2017-10-11T03:52:08.378Z,0
2017-10-11T03:52:48.791Z,0
2017-10-11T03:53:29.374Z,0
2017-10-11T03:54:09.701Z,0
2017-10-11T03:54:50.107Z,0
2017-10-11T03:55:30.594Z,0
2017-10-11T03:56:11.107Z,0
2017-10-11T03:56:51.489Z,0
2017-10-11T03:57:31.974Z,0
2017-10-11T03:58:12.506Z,0
2017-10-11T03:58:52.917Z,0
2017-10-11T03:59:33.383Z,0
2017-10-11T04:00:13.776Z,0
2017-10-11T04:00:54.294Z,0
2017-10-11T04:01:34.723Z,0
2017-10-11T04:02:15.190Z,0
2017-10-11T04:02:55.635Z,0
2017-10-11T04:03:36.121Z,0
2017-10-11T04:04:16.607Z,0
2017-10-11T04:04:57.063Z,0
2017-10-11T04:05:37.457Z,0
2017-10-11T04:06:17.983Z,0
2017-10-11T04:06:58.413Z,0
2017-10-11T04:07:38.969Z,0
2017-10-11T04:08:19.378Z,0
2017-10-11T04:08:59.824Z,0
2017-10-11T04:09:41.073Z,0
2017-10-11T04:10:21.585Z,0
2017-10-11T04:12:40.480Z,0
2017-10-11T04:13:20.858Z,0
2017-10-11T04:14:01.369Z,0
2017-10-11T04:14:41.791Z,0
2017-10-11T04:15:22.251Z,0
2017-10-11T04:16:02.696Z,0
2017-10-11T04:16:43.203Z,0
2017-10-11T04:17:23.653Z,0
2017-10-11T04:18:04.110Z,0
2017-10-11T04:18:44.508Z,0
2017-10-11T04:19:25.023Z,0
2017-10-11T04:20:05.487Z,0
2017-10-11T04:20:46.975Z,0
2017-10-11T04:21:27.484Z,0
2017-10-11T04:22:07.986Z,0
2017-10-11T04:22:48.416Z,0
2017-10-11T04:23:29.081Z,0
2017-10-11T04:24:09.435Z,0
2017-10-11T04:24:49.866Z,0
2017-10-11T04:25:31.024Z,0
2017-10-11T04:26:11.426Z,0
2017-10-11T04:26:51.857Z,0
2017-10-11T04:27:32.295Z,0
2017-10-11T04:28:12.987Z,0
2017-10-11T04:28:53.509Z,0
2017-10-11T04:29:33.902Z,0
2017-10-11T04:30:14.404Z,0
2017-10-11T04:30:54.836Z,0
2017-10-11T04:31:35.296Z,0
2017-10-11T04:32:15.752Z,0
2017-10-11T04:32:56.282Z,0
2017-10-11T04:33:36.846Z,0
2017-10-11T04:34:17.385Z,0
2017-10-11T04:34:57.814Z,0
2017-10-11T04:35:38.281Z,0
2017-10-11T04:36:18.715Z,0
2017-10-11T04:36:59.233Z,0
2017-10-11T04:37:39.675Z,0
2017-10-11T04:38:20.154Z,0
2017-10-11T04:39:00.634Z,0
2017-10-11T04:39:41.133Z,0
2017-10-11T04:40:21.588Z,0
2017-10-11T04:41:02.080Z,0
2017-10-11T04:41:42.512Z,0
2017-10-11T04:42:22.983Z,0
2017-10-11T04:43:03.523Z,0
2017-10-11T04:43:44.001Z,0
2017-10-11T04:44:24.610Z,0
2017-10-11T04:45:05.018Z,0
2017-10-11T04:45:45.580Z,0
2017-10-11T04:46:27.209Z,0
2017-10-11T04:47:07.821Z,0
2017-10-11T04:47:48.455Z,0
2017-10-11T04:48:28.892Z,0
2017-10-11T04:49:09.296Z,0
2017-10-11T04:49:49.801Z,0
2017-10-11T04:50:30.232Z,0
2017-10-11T04:51:10.690Z,0
2017-10-11T04:51:51.224Z,0
2017-10-11T04:52:31.628Z,0
2017-10-11T04:53:12.055Z,0
2017-10-11T04:53:52.511Z,0
2017-10-11T04:54:33.013Z,0
2017-10-11T04:55:13.625Z,0
2017-10-11T04:55:54.040Z,0
2017-10-11T04:56:34.697Z,0
2017-10-11T04:57:15.219Z,0
2017-10-11T04:57:55.673Z,0
2017-10-11T04:58:36.050Z,0
2017-10-11T04:59:16.519Z,0
2017-10-11T04:59:57.044Z,0
2017-10-11T05:00:37.522Z,0
2017-10-11T05:01:17.976Z,0
2017-10-11T05:01:59.187Z,0
2017-10-11T05:02:39.663Z,0
2017-10-11T05:03:20.127Z,0
2017-10-11T05:04:00.683Z,0
2017-10-11T05:04:41.172Z,0
2017-10-11T05:05:21.580Z,0
2017-10-11T05:06:02.071Z,0
2017-10-11T05:06:42.622Z,0
2017-10-11T05:07:23.106Z,0
2017-10-11T05:08:03.579Z,0
2017-10-11T05:08:44.048Z,0
2017-10-11T05:09:24.484Z,0
2017-10-11T05:10:05.224Z,0
2017-10-11T05:10:45.750Z,0
2017-10-11T05:11:26.297Z,0
2017-10-11T05:12:06.748Z,0
2017-10-11T05:12:47.205Z,4
2017-10-11T05:13:27.651Z,4
2017-10-11T05:14:08.123Z,4
2017-10-11T05:14:48.595Z,4
2017-10-11T05:15:29.187Z,0
2017-10-11T05:16:09.657Z,4
2017-10-11T05:16:50.078Z,4
2017-10-11T05:17:30.576Z,4
2017-10-11T05:18:11.053Z,8
2017-10-11T05:18:51.434Z,4
2017-10-11T05:19:31.955Z,8
2017-10-11T05:20:12.376Z,8
2017-10-11T05:20:53.124Z,8
2017-10-11T05:21:33.875Z,12
2017-10-11T05:22:14.647Z,12
2017-10-11T05:22:55.311Z,12
2017-10-11T05:23:36.126Z,16
2017-10-11T05:24:16.860Z,20
2017-10-11T05:24:57.551Z,20
2017-10-11T05:25:38.237Z,24
2017-10-11T05:26:18.887Z,28
2017-10-11T05:26:59.588Z,32
2017-10-11T05:27:40.145Z,36
2017-10-11T05:28:20.650Z,40
2017-10-11T05:29:01.195Z,44
2017-10-11T05:29:41.619Z,48
2017-10-11T05:30:22.256Z,52
2017-10-11T05:31:02.973Z,60
2017-10-11T05:31:43.671Z,64
2017-10-11T05:32:24.376Z,68
2017-10-11T05:33:04.788Z,76
2017-10-11T05:33:45.322Z,80
2017-10-11T05:34:25.729Z,88
2017-10-11T05:35:06.178Z,96
2017-10-11T05:35:46.873Z,100
2017-10-11T05:36:28.007Z,108
2017-10-11T05:37:08.774Z,112
2017-10-11T05:37:49.382Z,124
2017-10-11T05:38:30.055Z,132
2017-10-11T05:39:10.707Z,136
2017-10-11T05:39:51.281Z,144
2017-10-11T05:40:31.933Z,152
2017-10-11T05:41:12.585Z,168
2017-10-11T05:41:53.254Z,176
2017-10-11T05:42:33.895Z,188
2017-10-11T05:43:14.556Z,200
2017-10-11T05:43:55.259Z,212
2017-10-11T05:44:35.927Z,224
2017-10-11T05:45:16.639Z,240
2017-10-11T05:45:57.278Z,256
2017-10-11T05:46:37.805Z,268
2017-10-11T05:47:18.250Z,284
2017-10-11T05:47:58.683Z,296
2017-10-11T05:48:39.157Z,312
2017-10-11T05:49:19.671Z,328
2017-10-11T05:50:00.118Z,348
2017-10-11T05:50:40.613Z,364
2017-10-11T05:51:21.221Z,380
2017-10-11T05:52:01.949Z,396
2017-10-11T05:52:42.670Z,416
2017-10-11T05:53:23.337Z,440
2017-10-11T05:54:03.977Z,460
2017-10-11T05:54:44.627Z,480
2017-10-11T05:55:25.237Z,504
2017-10-11T05:56:05.858Z,528
2017-10-11T05:56:46.578Z,556
2017-10-11T05:57:27.168Z,588
2017-10-11T05:58:07.808Z,616
2017-10-11T05:58:48.450Z,648
2017-10-11T05:59:29.065Z,680
2017-10-11T06:00:09.713Z,708
2017-10-11T06:00:50.330Z,740
2017-10-11T06:01:30.952Z,776
2017-10-11T06:02:11.671Z,808
2017-10-11T06:02:52.325Z,852
2017-10-11T06:03:33.022Z,888
2017-10-11T06:04:13.684Z,928
2017-10-11T06:04:54.442Z,968
2017-10-11T06:05:35.056Z,1016
2017-10-11T06:06:15.809Z,1064
2017-10-11T06:06:56.463Z,1108
2017-10-11T06:07:37.102Z,1160
2017-10-11T06:08:17.992Z,1204
2017-10-11T06:08:58.610Z,1252
2017-10-11T06:09:39.223Z,1304
2017-10-11T06:10:19.962Z,1352
2017-10-11T06:11:00.631Z,1400
2017-10-11T06:11:41.265Z,1444
2017-10-11T06:12:21.815Z,1492
2017-10-11T06:13:02.413Z,1552
2017-10-11T06:13:42.976Z,1616
2017-10-11T06:14:23.667Z,1648
2017-10-11T06:15:04.305Z,1680
2017-10-11T06:15:45.081Z,1712
2017-10-11T06:16:25.760Z,1752
2017-10-11T06:17:06.403Z,1804
2017-10-11T06:17:47.044Z,1844
2017-10-11T06:18:27.669Z,1868
2017-10-11T06:19:08.366Z,1896
2017-10-11T06:19:48.963Z,1916
2017-10-11T06:20:29.552Z,1964
2017-10-11T06:21:10.255Z,2032
2017-10-11T06:21:50.860Z,2028
2017-10-11T06:22:31.324Z,2044
2017-10-11T06:23:12.054Z,2108
2017-10-11T06:23:52.673Z,2216
2017-10-11T06:24:33.282Z,2272
2017-10-11T06:25:14.174Z,2252
2017-10-11T06:25:54.790Z,2236
2017-10-11T06:26:35.482Z,2176
2017-10-11T06:27:15.999Z,2184
2017-10-11T06:27:56.623Z,2236
2017-10-11T06:28:37.213Z,2280
2017-10-11T06:29:17.960Z,2324
2017-10-11T06:29:58.671Z,2392
2017-10-11T06:30:39.436Z,2496
2017-10-11T06:31:20.114Z,2620
2017-10-11T06:32:00.795Z,2748
2017-10-11T06:32:41.512Z,2888
2017-10-11T06:33:22.148Z,2996
2017-10-11T06:34:02.828Z,3176
2017-10-11T06:34:43.436Z,3272
2017-10-11T06:35:24.062Z,3384
2017-10-11T06:36:04.747Z,3448
2017-10-11T06:36:45.389Z,3448
2017-10-11T06:37:26.012Z,3556
2017-10-11T06:38:06.630Z,3692
2017-10-11T06:38:47.268Z,3800
2017-10-11T06:39:27.885Z,3856
2017-10-11T06:40:08.463Z,3928
2017-10-11T06:40:49.211Z,4072
2017-10-11T06:41:29.801Z,4212
2017-10-11T06:42:10.481Z,4432
2017-10-11T06:42:51.305Z,4500
2017-10-11T06:43:31.966Z,4456
2017-10-11T06:44:12.493Z,4416
2017-10-11T06:44:53.077Z,4428
2017-10-11T06:45:33.709Z,4480
2017-10-11T06:46:14.364Z,4668
2017-10-11T06:46:55.029Z,4776
2017-10-11T06:47:35.731Z,4864
2017-10-11T06:48:16.301Z,4824
2017-10-11T06:48:57.795Z,4788
2017-10-11T06:49:38.337Z,4812
2017-10-11T06:50:18.769Z,4932
2017-10-11T06:50:59.910Z,5032
2017-10-11T06:51:40.486Z,5052
2017-10-11T06:52:21.090Z,4936
2017-10-11T06:53:02.365Z,4832
2017-10-11T06:53:42.847Z,4976
2017-10-11T06:54:23.375Z,4948
2017-10-11T06:55:03.860Z,4836
2017-10-11T06:55:44.380Z,4960
2017-10-11T06:56:24.854Z,4744
2017-10-11T06:57:05.396Z,4528
2017-10-11T06:57:45.924Z,4380
2017-10-11T06:58:26.320Z,4236
2017-10-11T06:59:06.795Z,4176
2017-10-11T06:59:47.335Z,4092
2017-10-11T07:00:27.759Z,3944
2017-10-11T07:01:08.292Z,3720
2017-10-11T07:01:48.700Z,3604
2017-10-11T07:02:29.239Z,3564
2017-10-11T07:03:09.833Z,3540
2017-10-11T07:03:50.366Z,3620
2017-10-11T07:04:30.992Z,3700
2017-10-11T07:05:11.582Z,3752
2017-10-11T07:05:52.120Z,3784
2017-10-11T07:06:32.838Z,3800
2017-10-11T07:07:13.413Z,3792
2017-10-11T07:07:54.095Z,3872
2017-10-11T07:08:34.769Z,3948
2017-10-11T07:09:15.404Z,3936
2017-10-11T07:09:55.876Z,4128
2017-10-11T07:10:36.505Z,4268
2017-10-11T07:11:17.167Z,4344
2017-10-11T07:11:57.722Z,4492
2017-10-11T07:12:38.124Z,4632
2017-10-11T07:13:18.646Z,4792
2017-10-11T07:13:59.174Z,4852
2017-10-11T07:14:39.636Z,5180
2017-10-11T07:15:20.150Z,5560
2017-10-11T07:16:00.756Z,5716
2017-10-11T07:16:41.109Z,5932
2017-10-11T07:17:22.414Z,5896
2017-10-11T07:18:02.088Z,5680
2017-10-11T07:18:42.636Z,5468
2017-10-11T07:19:23.200Z,5288
2017-10-11T07:20:03.770Z,5300
2017-10-11T07:20:44.231Z,5200
2017-10-11T07:21:24.671Z,5212
2017-10-11T07:22:05.101Z,5280
2017-10-11T07:22:45.604Z,5456
2017-10-11T07:23:26.095Z,5636
2017-10-11T07:24:06.619Z,5648
2017-10-11T07:24:47.165Z,5800
2017-10-11T07:25:28.567Z,6376
2017-10-11T07:26:09.170Z,7056
2017-10-11T07:26:49.668Z,7676
2017-10-11T07:27:30.183Z,8040
2017-10-11T07:28:10.763Z,8432
2017-10-11T07:28:51.269Z,8924
2017-10-11T07:29:31.724Z,8968
2017-10-11T07:30:12.256Z,8956
2017-10-11T07:30:52.676Z,8756
2017-10-11T07:31:33.160Z,8896
2017-10-11T07:32:13.678Z,9024
2017-10-11T07:32:54.183Z,9308
2017-10-11T07:33:34.623Z,9372
2017-10-11T07:34:15.253Z,9428
2017-10-11T07:34:55.736Z,9444
2017-10-11T07:35:36.260Z,9660
2017-10-11T07:36:16.896Z,9980
2017-10-11T07:36:57.415Z,9988
2017-10-11T07:37:38.533Z,9880
2017-10-11T07:38:18.991Z,9884
2017-10-11T07:38:59.464Z,9744
2017-10-11T07:39:39.891Z,9444
2017-10-11T07:40:20.344Z,9500
2017-10-11T07:41:00.835Z,9404
2017-10-11T07:41:41.615Z,9424
2017-10-11T07:42:22.018Z,9284
2017-10-11T07:43:02.499Z,9140
2017-10-11T07:43:42.997Z,9036
2017-10-11T07:44:23.472Z,8828
2017-10-11T07:45:03.971Z,8648
2017-10-11T07:45:44.985Z,8648
2017-10-11T07:46:25.530Z,8960
2017-10-11T07:47:06.686Z,8924
2017-10-11T07:47:47.171Z,8800
2017-10-11T07:48:27.854Z,8740
2017-10-11T07:49:08.187Z,8680
2017-10-11T07:49:48.755Z,8520
2017-10-11T07:50:29.203Z,8500
2017-10-11T07:51:09.774Z,8676
2017-10-11T07:51:50.175Z,8984
2017-10-11T07:52:30.660Z,8936
2017-10-11T07:53:11.144Z,8696
2017-10-11T07:53:51.689Z,8564
2017-10-11T07:54:32.187Z,8392
2017-10-11T07:55:12.683Z,8064
2017-10-11T07:55:53.123Z,8156
2017-10-11T07:56:33.577Z,8244
2017-10-11T07:57:14.064Z,8320
2017-10-11T07:57:54.601Z,8368
2017-10-11T07:58:35.059Z,8348
2017-10-11T07:59:15.562Z,8612
2017-10-11T07:59:56.006Z,8408
2017-10-11T08:00:36.461Z,8508
2017-10-11T08:01:17.005Z,8320
2017-10-11T08:01:57.578Z,8144
2017-10-11T08:02:38.068Z,8348
2017-10-11T08:03:18.572Z,8236
2017-10-11T08:03:59.027Z,8132
2017-10-11T08:04:39.570Z,8044
2017-10-11T08:05:19.992Z,8164
2017-10-11T08:06:00.706Z,8228
2017-10-11T08:06:41.159Z,8004
2017-10-11T08:07:21.673Z,8072
2017-10-11T08:08:02.111Z,8084
2017-10-11T08:08:43.592Z,8460
2017-10-11T08:09:24.197Z,8540
2017-10-11T08:10:04.694Z,8808
2017-10-11T08:10:45.203Z,8956
2017-10-11T08:11:25.824Z,8780
2017-10-11T08:12:06.333Z,9060
2017-10-11T08:12:46.829Z,9172
2017-10-11T08:13:27.340Z,9088
2017-10-11T08:14:08.604Z,9208
2017-10-11T08:14:49.056Z,9512
2017-10-11T08:15:29.595Z,10152
2017-10-11T08:16:10.088Z,10288
2017-10-11T08:16:50.550Z,11200
2017-10-11T08:17:31.608Z,10724
2017-10-11T08:18:12.117Z,10924
2017-10-11T08:18:52.694Z,11632
2017-10-11T08:19:33.151Z,11440
2017-10-11T08:20:13.630Z,11324
2017-10-11T08:20:54.124Z,11568
2017-10-11T08:21:34.693Z,11716
2017-10-11T08:22:15.177Z,12068
2017-10-11T08:22:55.776Z,12440
2017-10-11T08:23:36.242Z,12656
2017-10-11T08:24:16.695Z,12056
2017-10-11T08:24:57.204Z,12120
2017-10-11T08:25:37.689Z,12088
2017-10-11T08:26:18.300Z,13888
2017-10-11T08:26:58.734Z,11864
2017-10-11T08:27:39.304Z,12088
2017-10-11T08:28:19.854Z,12540
2017-10-11T08:29:00.330Z,12236
2017-10-11T08:29:40.870Z,11884
2017-10-11T08:30:21.288Z,12160
2017-10-11T08:31:01.870Z,13280
2017-10-11T08:31:42.383Z,13768
2017-10-11T08:32:22.845Z,19680
2017-10-11T08:33:03.348Z,18304
2017-10-11T08:33:43.939Z,15672
2017-10-11T08:34:24.392Z,15684
2017-10-11T08:35:04.854Z,14880
2017-10-11T08:35:45.400Z,13520
2017-10-11T08:36:26.035Z,13824
2017-10-11T08:37:06.580Z,13916
2017-10-11T08:37:47.074Z,15052
2017-10-11T08:38:27.653Z,22336
2017-10-11T08:39:08.136Z,17040
2017-10-11T08:39:48.650Z,22400
2017-10-11T08:40:29.146Z,18624
2017-10-11T08:41:09.649Z,18400
2017-10-11T08:41:50.165Z,19456
2017-10-11T08:42:30.687Z,16836
2017-10-11T08:43:11.220Z,17536
2017-10-11T08:43:51.746Z,16992
2017-10-11T08:44:32.377Z,17600
2017-10-11T08:45:12.840Z,17664
2017-10-11T08:45:53.841Z,20736
2017-10-11T08:46:34.446Z,18336
2017-10-11T08:47:14.866Z,14280
2017-10-11T08:47:55.361Z,14440
2017-10-11T08:48:35.842Z,13760
2017-10-11T08:49:16.576Z,13704
2017-10-11T08:49:57.146Z,13764
2017-10-11T08:50:37.809Z,13996
2017-10-11T08:51:18.382Z,14088
2017-10-11T08:51:58.926Z,14528
2017-10-11T08:52:39.424Z,14792
2017-10-11T08:53:20.109Z,14664
2017-10-11T08:54:00.754Z,14204
2017-10-11T08:54:41.236Z,13692
2017-10-11T08:55:21.880Z,12664
2017-10-11T08:56:02.339Z,12312
2017-10-11T08:56:42.787Z,12164
2017-10-11T08:57:23.275Z,12260
2017-10-11T08:58:03.791Z,12168
2017-10-11T08:58:44.251Z,11832
2017-10-11T08:59:24.831Z,11856
2017-10-11T09:00:05.374Z,12028
2017-10-11T09:00:45.870Z,12176
2017-10-11T09:01:26.732Z,12364
2017-10-11T09:02:07.277Z,12636
2017-10-11T09:02:47.755Z,12772
2017-10-11T09:03:28.309Z,13072
2017-10-11T09:04:08.840Z,13040
2017-10-11T09:04:49.537Z,12648
2017-10-11T09:05:30.057Z,12488
2017-10-11T09:06:10.539Z,12400
2017-10-11T09:06:51.044Z,12524
2017-10-11T09:07:31.560Z,12512
2017-10-11T09:08:12.118Z,12360
2017-10-11T09:08:52.581Z,12212
2017-10-11T09:09:33.132Z,11924
2017-10-11T09:10:13.663Z,11644
2017-10-11T09:10:54.177Z,11576
2017-10-11T09:11:34.687Z,11636
2017-10-11T09:12:15.253Z,11780
2017-10-11T09:12:55.782Z,11900
2017-10-11T09:13:36.282Z,11724
2017-10-11T09:14:16.864Z,11468
2017-10-11T09:16:34.816Z,11204
2017-10-11T09:17:15.352Z,11164
2017-10-11T09:17:55.838Z,11048
2017-10-11T09:18:36.392Z,11020
2017-10-11T09:19:16.950Z,11020
2017-10-11T09:19:57.441Z,11120
2017-10-11T09:20:37.898Z,11312
2017-10-11T09:21:18.541Z,11288
2017-10-11T09:21:59.076Z,11296
2017-10-11T09:22:39.523Z,11484
2017-10-11T09:23:20.756Z,11696
2017-10-11T09:24:01.200Z,12140
2017-10-11T09:24:41.709Z,12372
2017-10-11T09:25:22.278Z,12380
2017-10-11T09:26:02.753Z,12320
2017-10-11T09:26:43.278Z,12212
2017-10-11T09:27:23.885Z,11952
2017-10-11T09:28:04.343Z,11616
2017-10-11T09:28:44.811Z,11592
2017-10-11T09:29:25.339Z,11428
2017-10-11T09:30:05.804Z,11112
2017-10-11T09:30:46.382Z,11008
2017-10-11T09:31:26.865Z,10960
2017-10-11T09:32:07.357Z,10896
2017-10-11T09:32:47.934Z,10728
2017-10-11T09:33:28.443Z,10592
2017-10-11T09:34:09.050Z,10536
2017-10-11T09:34:49.703Z,10660
2017-10-11T09:35:31.139Z,10748
2017-10-11T09:36:11.773Z,10956
2017-10-11T09:36:52.320Z,11368
2017-10-11T09:37:32.814Z,11948